sensor_id;sensor_type;location;lat;lon;timestamp;P1;durP1;ratioP1;P2;durP2;ratioP2
9330;SDS011;4704;50.470;12.072;2023-04-25T00:01:58;0.70;;;0.70;;
9330;SDS011;4704;50.470;12.072;2023-04-25T00:04:26;0.80;;;0.80;;
9330;SDS011;4704;50.470;12.072;2023-04-25T00:06:54;1.00;;;0.90;;
9330;SDS011;4704;50.470;12.072;2023-04-25T00:09:22;0.70;;;0.70;;
9330;SDS011;4704;50.470;12.072;2023-04-25T00:11:50;0.93;;;0.90;;
9330;SDS011;4704;50.470;12.072;2023-04-25T00:14:20;0.70;;;0.70;;
9330;SDS011;4704;50.470;12.072;2023-04-25T00:16:48;0.68;;;0.68;;
9330;SDS011;4704;50.470;12.072;2023-04-25T00:19:17;0.70;;;0.70;;
9330;SDS011;4704;50.470;12.072;2023-04-25T00:21:44;0.93;;;0.85;;
9330;SDS011;4704;50.470;12.072;2023-04-25T00:24:12;0.93;;;0.70;;
9330;SDS011;4704;50.470;12.072;2023-04-25T00:26:40;0.80;;;0.80;;
9330;SDS011;4704;50.470;12.072;2023-04-25T00:29:08;0.90;;;0.88;;
9330;SDS011;4704;50.470;12.072;2023-04-25T00:31:37;0.80;;;0.73;;
9330;SDS011;4704;50.470;12.072;2023-04-25T00:34:05;0.90;;;0.90;;
9330;SDS011;4704;50.470;12.072;2023-04-25T00:36:33;0.88;;;0.88;;
9330;SDS011;4704;50.470;12.072;2023-04-25T00:39:01;0.90;;;0.88;;
9330;SDS011;4704;50.470;12.072;2023-04-25T00:41:29;0.80;;;0.80;;
9330;SDS011;4704;50.470;12.072;2023-04-25T00:43:57;0.70;;;0.70;;
9330;SDS011;4704;50.470;12.072;2023-04-25T00:46:25;0.73;;;0.73;;
9330;SDS011;4704;50.470;12.072;2023-04-25T00:48:54;1.05;;;1.00;;
9330;SDS011;4704;50.470;12.072;2023-04-25T00:51:22;0.93;;;0.70;;
9330;SDS011;4704;50.470;12.072;2023-04-25T00:53:50;0.80;;;0.80;;
9330;SDS011;4704;50.470;12.072;2023-04-25T00:56:18;0.80;;;0.80;;
9330;SDS011;4704;50.470;12.072;2023-04-25T00:58:46;0.82;;;0.82;;
9330;SDS011;4704;50.470;12.072;2023-04-25T01:01:15;0.80;;;0.80;;
9330;SDS011;4704;50.470;12.072;2023-04-25T01:03:43;0.85;;;0.85;;
9330;SDS011;4704;50.470;12.072;2023-04-25T01:06:16;0.90;;;0.90;;
9330;SDS011;4704;50.470;12.072;2023-04-25T01:08:44;0.80;;;0.80;;
9330;SDS011;4704;50.470;12.072;2023-04-25T01:11:12;0.90;;;0.90;;
9330;SDS011;4704;50.470;12.072;2023-04-25T01:13:40;0.70;;;0.70;;
9330;SDS011;4704;50.470;12.072;2023-04-25T01:16:08;0.73;;;0.73;;
9330;SDS011;4704;50.470;12.072;2023-04-25T01:18:35;0.95;;;0.90;;
9330;SDS011;4704;50.470;12.072;2023-04-25T01:21:08;0.80;;;0.80;;
9330;SDS011;4704;50.470;12.072;2023-04-25T01:23:36;0.80;;;0.80;;
9330;SDS011;4704;50.470;12.072;2023-04-25T01:26:05;0.82;;;0.80;;
9330;SDS011;4704;50.470;12.072;2023-04-25T01:28:33;0.95;;;0.95;;
9330;SDS011;4704;50.470;12.072;2023-04-25T01:31:01;0.70;;;0.70;;
9330;SDS011;4704;50.470;12.072;2023-04-25T01:33:29;0.80;;;0.80;;
9330;SDS011;4704;50.470;12.072;2023-04-25T01:35:57;0.65;;;0.65;;
9330;SDS011;4704;50.470;12.072;2023-04-25T01:38:26;0.73;;;0.73;;
9330;SDS011;4704;50.470;12.072;2023-04-25T01:40:54;0.70;;;0.70;;
9330;SDS011;4704;50.470;12.072;2023-04-25T01:43:22;0.93;;;0.93;;
9330;SDS011;4704;50.470;12.072;2023-04-25T01:45:51;0.80;;;0.80;;
9330;SDS011;4704;50.470;12.072;2023-04-25T01:48:19;0.80;;;0.80;;
9330;SDS011;4704;50.470;12.072;2023-04-25T01:50:47;0.70;;;0.70;;
9330;SDS011;4704;50.470;12.072;2023-04-25T01:53:15;0.80;;;0.80;;
9330;SDS011;4704;50.470;12.072;2023-04-25T01:55:44;0.77;;;0.77;;
9330;SDS011;4704;50.470;12.072;2023-04-25T01:58:12;0.80;;;0.80;;
9330;SDS011;4704;50.470;12.072;2023-04-25T02:00:40;0.73;;;0.73;;
9330;SDS011;4704;50.470;12.072;2023-04-25T02:03:08;1.00;;;0.90;;
9330;SDS011;4704;50.470;12.072;2023-04-25T02:05:35;1.08;;;0.95;;
9330;SDS011;4704;50.470;12.072;2023-04-25T02:08:04;0.90;;;0.90;;
9330;SDS011;4704;50.470;12.072;2023-04-25T02:10:32;0.88;;;0.88;;
9330;SDS011;4704;50.470;12.072;2023-04-25T02:13:01;0.77;;;0.77;;
9330;SDS011;4704;50.470;12.072;2023-04-25T02:15:29;0.80;;;0.80;;
9330;SDS011;4704;50.470;12.072;2023-04-25T02:17:57;0.70;;;0.70;;
9330;SDS011;4704;50.470;12.072;2023-04-25T02:20:26;0.77;;;0.77;;
9330;SDS011;4704;50.470;12.072;2023-04-25T02:22:55;0.70;;;0.70;;
9330;SDS011;4704;50.470;12.072;2023-04-25T02:25:23;0.70;;;0.70;;
9330;SDS011;4704;50.470;12.072;2023-04-25T02:27:50;0.73;;;0.73;;
9330;SDS011;4704;50.470;12.072;2023-04-25T02:33:23;0.95;;;0.95;;
9330;SDS011;4704;50.470;12.072;2023-04-25T02:35:51;0.90;;;0.90;;
9330;SDS011;4704;50.470;12.072;2023-04-25T02:38:18;0.85;;;0.85;;
9330;SDS011;4704;50.470;12.072;2023-04-25T02:40:46;0.90;;;0.90;;
9330;SDS011;4704;50.470;12.072;2023-04-25T02:43:14;0.82;;;0.82;;
9330;SDS011;4704;50.470;12.072;2023-04-25T02:45:41;0.98;;;0.98;;
9330;SDS011;4704;50.470;12.072;2023-04-25T02:48:09;1.00;;;0.85;;
9330;SDS011;4704;50.470;12.072;2023-04-25T02:50:37;0.80;;;0.80;;
9330;SDS011;4704;50.470;12.072;2023-04-25T02:53:05;0.90;;;0.90;;
9330;SDS011;4704;50.470;12.072;2023-04-25T02:55:32;1.10;;;1.00;;
9330;SDS011;4704;50.470;12.072;2023-04-25T02:58:00;0.90;;;0.90;;
9330;SDS011;4704;50.470;12.072;2023-04-25T03:00:28;0.95;;;0.90;;
9330;SDS011;4704;50.470;12.072;2023-04-25T03:02:55;0.80;;;0.80;;
9330;SDS011;4704;50.470;12.072;2023-04-25T03:05:23;0.80;;;0.80;;
9330;SDS011;4704;50.470;12.072;2023-04-25T03:07:52;0.98;;;0.90;;
9330;SDS011;4704;50.470;12.072;2023-04-25T03:10:19;0.70;;;0.70;;
9330;SDS011;4704;50.470;12.072;2023-04-25T03:12:47;0.93;;;0.93;;
9330;SDS011;4704;50.470;12.072;2023-04-25T03:15:14;0.85;;;0.85;;
9330;SDS011;4704;50.470;12.072;2023-04-25T03:17:42;0.90;;;0.90;;
9330;SDS011;4704;50.470;12.072;2023-04-25T03:20:10;0.95;;;0.90;;
9330;SDS011;4704;50.470;12.072;2023-04-25T03:22:38;0.80;;;0.80;;
9330;SDS011;4704;50.470;12.072;2023-04-25T03:25:07;0.98;;;0.98;;
9330;SDS011;4704;50.470;12.072;2023-04-25T03:27:35;0.80;;;0.80;;
9330;SDS011;4704;50.470;12.072;2023-04-25T03:30:02;1.08;;;1.05;;
9330;SDS011;4704;50.470;12.072;2023-04-25T03:32:30;1.00;;;1.00;;
9330;SDS011;4704;50.470;12.072;2023-04-25T03:34:57;0.90;;;0.90;;
9330;SDS011;4704;50.470;12.072;2023-04-25T03:37:25;0.90;;;0.90;;
9330;SDS011;4704;50.470;12.072;2023-04-25T03:39:52;0.93;;;0.93;;
9330;SDS011;4704;50.470;12.072;2023-04-25T03:42:21;1.08;;;1.00;;
9330;SDS011;4704;50.470;12.072;2023-04-25T03:44:49;0.80;;;0.80;;
9330;SDS011;4704;50.470;12.072;2023-04-25T03:47:16;1.00;;;1.00;;
9330;SDS011;4704;50.470;12.072;2023-04-25T03:49:44;1.20;;;1.10;;
9330;SDS011;4704;50.470;12.072;2023-04-25T03:52:11;1.08;;;0.98;;
9330;SDS011;4704;50.470;12.072;2023-04-25T03:54:39;0.88;;;0.88;;
9330;SDS011;4704;50.470;12.072;2023-04-25T03:57:06;1.00;;;1.00;;
9330;SDS011;4704;50.470;12.072;2023-04-25T03:59:35;0.90;;;0.90;;
9330;SDS011;4704;50.470;12.072;2023-04-25T04:02:03;1.08;;;1.00;;
9330;SDS011;4704;50.470;12.072;2023-04-25T04:04:31;0.85;;;0.85;;
9330;SDS011;4704;50.470;12.072;2023-04-25T04:06:58;1.00;;;1.00;;
9330;SDS011;4704;50.470;12.072;2023-04-25T04:09:26;0.90;;;0.90;;
9330;SDS011;4704;50.470;12.072;2023-04-25T04:11:53;0.80;;;0.80;;
9330;SDS011;4704;50.470;12.072;2023-04-25T04:14:21;1.17;;;1.08;;
9330;SDS011;4704;50.470;12.072;2023-04-25T04:16:50;1.02;;;0.90;;
9330;SDS011;4704;50.470;12.072;2023-04-25T04:19:18;0.80;;;0.80;;
9330;SDS011;4704;50.470;12.072;2023-04-25T04:21:45;0.90;;;0.90;;
9330;SDS011;4704;50.470;12.072;2023-04-25T04:24:13;1.10;;;1.10;;
9330;SDS011;4704;50.470;12.072;2023-04-25T04:26:42;1.02;;;1.02;;
9330;SDS011;4704;50.470;12.072;2023-04-25T04:29:10;0.82;;;0.82;;
9330;SDS011;4704;50.470;12.072;2023-04-25T04:31:47;1.15;;;1.05;;
9330;SDS011;4704;50.470;12.072;2023-04-25T04:34:16;0.90;;;0.90;;
9330;SDS011;4704;50.470;12.072;2023-04-25T04:36:44;1.38;;;0.90;;
9330;SDS011;4704;50.470;12.072;2023-04-25T04:39:12;1.00;;;1.00;;
9330;SDS011;4704;50.470;12.072;2023-04-25T04:41:39;0.90;;;0.90;;
9330;SDS011;4704;50.470;12.072;2023-04-25T04:44:08;0.70;;;0.70;;
9330;SDS011;4704;50.470;12.072;2023-04-25T04:46:35;0.90;;;0.90;;
9330;SDS011;4704;50.470;12.072;2023-04-25T04:49:07;0.90;;;0.90;;
9330;SDS011;4704;50.470;12.072;2023-04-25T04:51:36;1.00;;;1.00;;
9330;SDS011;4704;50.470;12.072;2023-04-25T04:54:03;0.90;;;0.90;;
9330;SDS011;4704;50.470;12.072;2023-04-25T04:56:31;0.85;;;0.85;;
9330;SDS011;4704;50.470;12.072;2023-04-25T04:58:59;1.08;;;1.08;;
9330;SDS011;4704;50.470;12.072;2023-04-25T05:01:27;1.88;;;1.10;;
9330;SDS011;4704;50.470;12.072;2023-04-25T05:03:55;0.95;;;0.88;;
9330;SDS011;4704;50.470;12.072;2023-04-25T05:06:25;1.00;;;1.00;;
9330;SDS011;4704;50.470;12.072;2023-04-25T05:08:55;1.00;;;1.00;;
9330;SDS011;4704;50.470;12.072;2023-04-25T05:11:23;0.90;;;0.90;;
9330;SDS011;4704;50.470;12.072;2023-04-25T05:13:51;1.20;;;1.10;;
9330;SDS011;4704;50.470;12.072;2023-04-25T05:16:19;1.20;;;1.20;;
9330;SDS011;4704;50.470;12.072;2023-04-25T05:18:46;0.90;;;0.90;;
9330;SDS011;4704;50.470;12.072;2023-04-25T05:21:14;1.02;;;1.02;;
9330;SDS011;4704;50.470;12.072;2023-04-25T05:23:41;1.15;;;1.08;;
9330;SDS011;4704;50.470;12.072;2023-04-25T05:26:11;1.10;;;1.10;;
9330;SDS011;4704;50.470;12.072;2023-04-25T05:28:40;0.90;;;0.90;;
9330;SDS011;4704;50.470;12.072;2023-04-25T05:31:07;2.20;;;1.40;;
9330;SDS011;4704;50.470;12.072;2023-04-25T05:33:36;1.40;;;1.30;;
9330;SDS011;4704;50.470;12.072;2023-04-25T05:36:04;1.83;;;1.30;;
9330;SDS011;4704;50.470;12.072;2023-04-25T05:38:31;1.63;;;1.52;;
9330;SDS011;4704;50.470;12.072;2023-04-25T05:40:59;2.00;;;1.60;;
9330;SDS011;4704;50.470;12.072;2023-04-25T05:43:28;2.75;;;1.50;;
9330;SDS011;4704;50.470;12.072;2023-04-25T05:45:55;2.45;;;1.70;;
9330;SDS011;4704;50.470;12.072;2023-04-25T05:48:23;2.72;;;1.92;;
9330;SDS011;4704;50.470;12.072;2023-04-25T05:50:51;2.50;;;1.80;;
9330;SDS011;4704;50.470;12.072;2023-04-25T05:53:18;3.65;;;2.00;;
9330;SDS011;4704;50.470;12.072;2023-04-25T05:55:47;2.92;;;2.10;;
9330;SDS011;4704;50.470;12.072;2023-04-25T05:58:14;4.20;;;2.65;;
9330;SDS011;4704;50.470;12.072;2023-04-25T06:00:43;4.05;;;2.38;;
9330;SDS011;4704;50.470;12.072;2023-04-25T06:03:11;3.58;;;2.13;;
9330;SDS011;4704;50.470;12.072;2023-04-25T06:05:40;4.93;;;2.60;;
9330;SDS011;4704;50.470;12.072;2023-04-25T06:08:08;4.32;;;2.80;;
9330;SDS011;4704;50.470;12.072;2023-04-25T06:10:36;4.85;;;2.90;;
9330;SDS011;4704;50.470;12.072;2023-04-25T06:13:04;5.25;;;2.80;;
9330;SDS011;4704;50.470;12.072;2023-04-25T06:15:31;4.25;;;2.92;;
9330;SDS011;4704;50.470;12.072;2023-04-25T06:18:00;4.10;;;2.83;;
9330;SDS011;4704;50.470;12.072;2023-04-25T06:20:28;5.45;;;2.80;;
9330;SDS011;4704;50.470;12.072;2023-04-25T06:22:55;5.80;;;3.13;;
9330;SDS011;4704;50.470;12.072;2023-04-25T06:25:23;5.00;;;3.20;;
9330;SDS011;4704;50.470;12.072;2023-04-25T06:27:51;4.82;;;3.20;;
9330;SDS011;4704;50.470;12.072;2023-04-25T06:30:18;5.38;;;3.05;;
9330;SDS011;4704;50.470;12.072;2023-04-25T06:32:48;6.30;;;3.80;;
9330;SDS011;4704;50.470;12.072;2023-04-25T06:35:17;7.68;;;3.60;;
9330;SDS011;4704;50.470;12.072;2023-04-25T06:37:45;5.82;;;3.47;;
9330;SDS011;4704;50.470;12.072;2023-04-25T06:40:12;6.43;;;4.18;;
9330;SDS011;4704;50.470;12.072;2023-04-25T06:42:40;7.00;;;3.53;;
9330;SDS011;4704;50.470;12.072;2023-04-25T06:45:08;6.03;;;3.78;;
9330;SDS011;4704;50.470;12.072;2023-04-25T06:47:35;4.97;;;3.42;;
9330;SDS011;4704;50.470;12.072;2023-04-25T06:50:03;7.13;;;3.75;;
9330;SDS011;4704;50.470;12.072;2023-04-25T06:52:32;4.95;;;3.50;;
9330;SDS011;4704;50.470;12.072;2023-04-25T06:55:00;8.32;;;3.42;;
9330;SDS011;4704;50.470;12.072;2023-04-25T06:57:28;7.10;;;3.55;;
9330;SDS011;4704;50.470;12.072;2023-04-25T06:59:55;7.03;;;3.42;;
9330;SDS011;4704;50.470;12.072;2023-04-25T07:02:23;5.90;;;3.75;;
9330;SDS011;4704;50.470;12.072;2023-04-25T07:04:50;4.40;;;3.72;;
9330;SDS011;4704;50.470;12.072;2023-04-25T07:07:18;5.65;;;3.75;;
9330;SDS011;4704;50.470;12.072;2023-04-25T07:09:47;6.57;;;3.50;;
9330;SDS011;4704;50.470;12.072;2023-04-25T07:12:14;6.20;;;3.78;;
9330;SDS011;4704;50.470;12.072;2023-04-25T07:14:42;5.22;;;3.33;;
9330;SDS011;4704;50.470;12.072;2023-04-25T07:17:09;5.93;;;3.58;;
9330;SDS011;4704;50.470;12.072;2023-04-25T07:19:37;5.78;;;3.30;;
9330;SDS011;4704;50.470;12.072;2023-04-25T07:22:05;5.88;;;3.90;;
9330;SDS011;4704;50.470;12.072;2023-04-25T07:24:32;4.57;;;3.72;;
9330;SDS011;4704;50.470;12.072;2023-04-25T07:27:01;5.32;;;3.83;;
9330;SDS011;4704;50.470;12.072;2023-04-25T07:29:29;4.88;;;3.50;;
9330;SDS011;4704;50.470;12.072;2023-04-25T07:31:57;6.55;;;3.50;;
9330;SDS011;4704;50.470;12.072;2023-04-25T07:34:24;5.80;;;3.70;;
9330;SDS011;4704;50.470;12.072;2023-04-25T07:36:52;5.70;;;3.30;;
9330;SDS011;4704;50.470;12.072;2023-04-25T07:39:19;5.65;;;3.47;;
9330;SDS011;4704;50.470;12.072;2023-04-25T07:41:48;6.10;;;3.65;;
9330;SDS011;4704;50.470;12.072;2023-04-25T07:44:17;5.47;;;3.15;;
9330;SDS011;4704;50.470;12.072;2023-04-25T07:46:45;5.28;;;3.20;;
9330;SDS011;4704;50.470;12.072;2023-04-25T07:49:12;5.15;;;3.20;;
9330;SDS011;4704;50.470;12.072;2023-04-25T07:51:40;4.00;;;3.00;;
9330;SDS011;4704;50.470;12.072;2023-04-25T07:54:08;4.80;;;3.28;;
9330;SDS011;4704;50.470;12.072;2023-04-25T07:56:36;4.40;;;3.20;;
9330;SDS011;4704;50.470;12.072;2023-04-25T07:59:03;4.18;;;2.90;;
9330;SDS011;4704;50.470;12.072;2023-04-25T08:01:33;4.63;;;2.97;;
9330;SDS011;4704;50.470;12.072;2023-04-25T08:04:00;4.85;;;3.40;;
9330;SDS011;4704;50.470;12.072;2023-04-25T08:06:28;4.63;;;3.15;;
9330;SDS011;4704;50.470;12.072;2023-04-25T08:08:56;5.50;;;3.17;;
9330;SDS011;4704;50.470;12.072;2023-04-25T08:11:24;3.90;;;2.90;;
9330;SDS011;4704;50.470;12.072;2023-04-25T08:13:51;4.18;;;3.00;;
9330;SDS011;4704;50.470;12.072;2023-04-25T08:16:19;4.93;;;2.75;;
9330;SDS011;4704;50.470;12.072;2023-04-25T08:18:48;4.25;;;3.30;;
9330;SDS011;4704;50.470;12.072;2023-04-25T08:21:16;5.03;;;3.13;;
9330;SDS011;4704;50.470;12.072;2023-04-25T08:23:43;5.13;;;3.13;;
9330;SDS011;4704;50.470;12.072;2023-04-25T08:26:11;3.33;;;2.65;;
9330;SDS011;4704;50.470;12.072;2023-04-25T08:28:38;5.05;;;3.03;;
9330;SDS011;4704;50.470;12.072;2023-04-25T08:31:05;5.13;;;2.70;;
9330;SDS011;4704;50.470;12.072;2023-04-25T08:33:33;4.55;;;2.90;;
9330;SDS011;4704;50.470;12.072;2023-04-25T08:36:02;3.90;;;3.03;;
9330;SDS011;4704;50.470;12.072;2023-04-25T08:38:30;3.47;;;2.85;;
9330;SDS011;4704;50.470;12.072;2023-04-25T08:40:57;2.70;;;2.50;;
9330;SDS011;4704;50.470;12.072;2023-04-25T08:43:27;3.28;;;2.60;;
9330;SDS011;4704;50.470;12.072;2023-04-25T08:45:57;3.55;;;2.80;;
9330;SDS011;4704;50.470;12.072;2023-04-25T08:48:26;4.97;;;3.40;;
9330;SDS011;4704;50.470;12.072;2023-04-25T08:50:55;3.88;;;2.88;;
9330;SDS011;4704;50.470;12.072;2023-04-25T08:53:26;3.30;;;2.78;;
9330;SDS011;4704;50.470;12.072;2023-04-25T08:55:54;4.18;;;2.83;;
9330;SDS011;4704;50.470;12.072;2023-04-25T08:58:22;3.13;;;2.42;;
9330;SDS011;4704;50.470;12.072;2023-04-25T09:00:50;3.33;;;2.42;;
9330;SDS011;4704;50.470;12.072;2023-04-25T09:03:18;3.55;;;2.40;;
9330;SDS011;4704;50.470;12.072;2023-04-25T09:05:45;3.90;;;2.30;;
9330;SDS011;4704;50.470;12.072;2023-04-25T09:08:13;3.05;;;2.40;;
9330;SDS011;4704;50.470;12.072;2023-04-25T09:10:42;3.28;;;2.47;;
9330;SDS011;4704;50.470;12.072;2023-04-25T09:13:10;3.83;;;2.47;;
9330;SDS011;4704;50.470;12.072;2023-04-25T09:15:49;3.13;;;2.20;;
9330;SDS011;4704;50.470;12.072;2023-04-25T09:18:23;3.00;;;2.70;;
9330;SDS011;4704;50.470;12.072;2023-04-25T09:20:54;3.17;;;2.30;;
9330;SDS011;4704;50.470;12.072;2023-04-25T09:23:22;3.70;;;2.40;;
9330;SDS011;4704;50.470;12.072;2023-04-25T09:25:52;2.83;;;2.22;;
9330;SDS011;4704;50.470;12.072;2023-04-25T09:28:22;2.60;;;2.30;;
9330;SDS011;4704;50.470;12.072;2023-04-25T09:30:54;3.58;;;2.22;;
9330;SDS011;4704;50.470;12.072;2023-04-25T09:33:26;3.13;;;2.30;;
9330;SDS011;4704;50.470;12.072;2023-04-25T09:35:56;3.08;;;2.50;;
9330;SDS011;4704;50.470;12.072;2023-04-25T09:38:28;2.35;;;1.90;;
9330;SDS011;4704;50.470;12.072;2023-04-25T09:40:58;3.25;;;2.47;;
9330;SDS011;4704;50.470;12.072;2023-04-25T09:43:27;3.03;;;2.22;;
9330;SDS011;4704;50.470;12.072;2023-04-25T09:45:54;3.47;;;2.47;;
9330;SDS011;4704;50.470;12.072;2023-04-25T09:48:25;2.97;;;2.20;;
9330;SDS011;4704;50.470;12.072;2023-04-25T09:53:42;2.70;;;2.50;;
9330;SDS011;4704;50.470;12.072;2023-04-25T09:56:12;3.28;;;1.92;;
9330;SDS011;4704;50.470;12.072;2023-04-25T09:58:41;3.15;;;2.22;;
9330;SDS011;4704;50.470;12.072;2023-04-25T10:01:09;1.98;;;1.75;;
9330;SDS011;4704;50.470;12.072;2023-04-25T10:03:38;3.47;;;2.10;;
9330;SDS011;4704;50.470;12.072;2023-04-25T10:06:07;2.80;;;2.10;;
9330;SDS011;4704;50.470;12.072;2023-04-25T10:08:36;2.60;;;2.30;;
9330;SDS011;4704;50.470;12.072;2023-04-25T10:11:04;2.63;;;2.10;;
9330;SDS011;4704;50.470;12.072;2023-04-25T10:13:34;2.38;;;2.00;;
9330;SDS011;4704;50.470;12.072;2023-04-25T10:16:02;2.80;;;2.13;;
9330;SDS011;4704;50.470;12.072;2023-04-25T10:18:30;2.70;;;2.08;;
9330;SDS011;4704;50.470;12.072;2023-04-25T10:20:59;2.53;;;2.30;;
9330;SDS011;4704;50.470;12.072;2023-04-25T10:23:26;2.45;;;2.15;;
9330;SDS011;4704;50.470;12.072;2023-04-25T10:25:54;2.55;;;1.98;;
9330;SDS011;4704;50.470;12.072;2023-04-25T10:28:22;1.98;;;1.70;;
9330;SDS011;4704;50.470;12.072;2023-04-25T10:31:01;3.13;;;2.20;;
9330;SDS011;4704;50.470;12.072;2023-04-25T10:33:29;3.25;;;2.15;;
9330;SDS011;4704;50.470;12.072;2023-04-25T10:35:57;2.53;;;2.03;;
9330;SDS011;4704;50.470;12.072;2023-04-25T10:38:25;2.90;;;1.83;;
9330;SDS011;4704;50.470;12.072;2023-04-25T10:41:02;3.55;;;2.20;;
9330;SDS011;4704;50.470;12.072;2023-04-25T10:43:34;2.17;;;1.80;;
9330;SDS011;4704;50.470;12.072;2023-04-25T10:46:03;2.65;;;1.95;;
9330;SDS011;4704;50.470;12.072;2023-04-25T10:48:43;2.30;;;1.80;;
9330;SDS011;4704;50.470;12.072;2023-04-25T10:51:15;2.35;;;2.00;;
9330;SDS011;4704;50.470;12.072;2023-04-25T10:53:43;2.55;;;1.90;;
9330;SDS011;4704;50.470;12.072;2023-04-25T10:56:11;2.40;;;1.95;;
9330;SDS011;4704;50.470;12.072;2023-04-25T10:58:42;3.13;;;2.10;;
9330;SDS011;4704;50.470;12.072;2023-04-25T11:01:11;2.45;;;1.70;;
9330;SDS011;4704;50.470;12.072;2023-04-25T11:03:43;2.75;;;2.13;;
9330;SDS011;4704;50.470;12.072;2023-04-25T11:06:15;2.00;;;1.60;;
9330;SDS011;4704;50.470;12.072;2023-04-25T11:08:47;3.08;;;1.75;;
9330;SDS011;4704;50.470;12.072;2023-04-25T11:11:15;2.10;;;1.73;;
9330;SDS011;4704;50.470;12.072;2023-04-25T11:13:42;2.40;;;1.52;;
9330;SDS011;4704;50.470;12.072;2023-04-25T11:16:11;2.28;;;1.83;;
9330;SDS011;4704;50.470;12.072;2023-04-25T11:18:40;2.28;;;1.75;;
9330;SDS011;4704;50.470;12.072;2023-04-25T11:21:08;1.63;;;1.52;;
9330;SDS011;4704;50.470;12.072;2023-04-25T11:23:35;2.15;;;1.65;;
9330;SDS011;4704;50.470;12.072;2023-04-25T11:26:03;2.25;;;1.67;;
9330;SDS011;4704;50.470;12.072;2023-04-25T11:28:31;2.70;;;1.85;;
9330;SDS011;4704;50.470;12.072;2023-04-25T11:30:58;2.15;;;1.70;;
9330;SDS011;4704;50.470;12.072;2023-04-25T11:33:27;1.88;;;1.60;;
9330;SDS011;4704;50.470;12.072;2023-04-25T11:35:55;3.25;;;1.70;;
9330;SDS011;4704;50.470;12.072;2023-04-25T11:38:22;3.38;;;1.73;;
9330;SDS011;4704;50.470;12.072;2023-04-25T11:40:50;1.70;;;1.50;;
9330;SDS011;4704;50.470;12.072;2023-04-25T11:43:19;1.50;;;1.40;;
9330;SDS011;4704;50.470;12.072;2023-04-25T11:45:48;2.50;;;1.67;;
9330;SDS011;4704;50.470;12.072;2023-04-25T11:48:15;1.60;;;1.50;;
9330;SDS011;4704;50.470;12.072;2023-04-25T11:50:44;1.67;;;1.50;;
9330;SDS011;4704;50.470;12.072;2023-04-25T11:53:12;1.67;;;1.35;;
9330;SDS011;4704;50.470;12.072;2023-04-25T11:55:39;1.92;;;1.75;;
9330;SDS011;4704;50.470;12.072;2023-04-25T11:58:07;1.50;;;1.40;;
9330;SDS011;4704;50.470;12.072;2023-04-25T12:00:34;2.15;;;1.58;;
9330;SDS011;4704;50.470;12.072;2023-04-25T12:03:02;2.45;;;1.50;;
9330;SDS011;4704;50.470;12.072;2023-04-25T12:05:30;1.80;;;1.48;;
9330;SDS011;4704;50.470;12.072;2023-04-25T12:08:13;1.73;;;1.52;;
9330;SDS011;4704;50.470;12.072;2023-04-25T12:10:41;1.60;;;1.50;;
9330;SDS011;4704;50.470;12.072;2023-04-25T12:13:22;1.63;;;1.40;;
9330;SDS011;4704;50.470;12.072;2023-04-25T12:15:50;2.35;;;1.30;;
9330;SDS011;4704;50.470;12.072;2023-04-25T12:18:22;1.73;;;1.48;;
9330;SDS011;4704;50.470;12.072;2023-04-25T12:20:50;1.50;;;1.40;;
9330;SDS011;4704;50.470;12.072;2023-04-25T12:23:26;1.48;;;1.38;;
9330;SDS011;4704;50.470;12.072;2023-04-25T12:25:54;1.30;;;1.10;;
9330;SDS011;4704;50.470;12.072;2023-04-25T12:28:24;1.77;;;1.30;;
9330;SDS011;4704;50.470;12.072;2023-04-25T12:30:56;1.50;;;1.40;;
9330;SDS011;4704;50.470;12.072;2023-04-25T12:33:24;1.50;;;1.40;;
9330;SDS011;4704;50.470;12.072;2023-04-25T12:35:52;1.30;;;1.20;;
9330;SDS011;4704;50.470;12.072;2023-04-25T12:38:20;1.55;;;1.40;;
9330;SDS011;4704;50.470;12.072;2023-04-25T12:40:49;1.40;;;1.30;;
9330;SDS011;4704;50.470;12.072;2023-04-25T12:43:17;1.52;;;1.30;;
9330;SDS011;4704;50.470;12.072;2023-04-25T12:45:44;1.88;;;1.50;;
9330;SDS011;4704;50.470;12.072;2023-04-25T12:48:12;1.35;;;1.25;;
9330;SDS011;4704;50.470;12.072;2023-04-25T12:50:39;1.50;;;1.40;;
9330;SDS011;4704;50.470;12.072;2023-04-25T12:53:07;1.40;;;1.30;;
9330;SDS011;4704;50.470;12.072;2023-04-25T12:55:35;1.30;;;1.20;;
9330;SDS011;4704;50.470;12.072;2023-04-25T12:58:04;1.45;;;1.35;;
9330;SDS011;4704;50.470;12.072;2023-04-25T13:00:31;1.40;;;1.30;;
9330;SDS011;4704;50.470;12.072;2023-04-25T13:02:59;1.30;;;1.20;;
9330;SDS011;4704;50.470;12.072;2023-04-25T13:05:27;1.30;;;1.20;;
9330;SDS011;4704;50.470;12.072;2023-04-25T13:07:55;1.40;;;1.30;;
9330;SDS011;4704;50.470;12.072;2023-04-25T13:10:23;1.30;;;1.20;;
9330;SDS011;4704;50.470;12.072;2023-04-25T13:12:52;1.48;;;1.35;;
9330;SDS011;4704;50.470;12.072;2023-04-25T13:15:21;2.55;;;1.40;;
9330;SDS011;4704;50.470;12.072;2023-04-25T13:17:48;1.30;;;1.20;;
9330;SDS011;4704;50.470;12.072;2023-04-25T13:20:16;1.48;;;1.38;;
9330;SDS011;4704;50.470;12.072;2023-04-25T13:22:47;1.20;;;1.10;;
9330;SDS011;4704;50.470;12.072;2023-04-25T13:25:15;1.30;;;1.20;;
9330;SDS011;4704;50.470;12.072;2023-04-25T13:27:42;1.27;;;1.10;;
9330;SDS011;4704;50.470;12.072;2023-04-25T13:30:10;1.00;;;1.00;;
9330;SDS011;4704;50.470;12.072;2023-04-25T13:32:39;1.25;;;1.15;;
9330;SDS011;4704;50.470;12.072;2023-04-25T13:35:08;1.10;;;1.00;;
9330;SDS011;4704;50.470;12.072;2023-04-25T13:37:35;0.93;;;0.90;;
9330;SDS011;4704;50.470;12.072;2023-04-25T13:40:04;1.63;;;1.30;;
9330;SDS011;4704;50.470;12.072;2023-04-25T13:42:34;1.10;;;1.00;;
9330;SDS011;4704;50.470;12.072;2023-04-25T13:45:01;1.55;;;1.20;;
9330;SDS011;4704;50.470;12.072;2023-04-25T13:47:29;1.13;;;1.02;;
9330;SDS011;4704;50.470;12.072;2023-04-25T13:49:58;1.27;;;1.17;;
9330;SDS011;4704;50.470;12.072;2023-04-25T13:52:28;1.38;;;1.27;;
9330;SDS011;4704;50.470;12.072;2023-04-25T13:54:55;1.33;;;1.23;;
9330;SDS011;4704;50.470;12.072;2023-04-25T13:57:23;1.20;;;1.10;;
9330;SDS011;4704;50.470;12.072;2023-04-25T13:59:50;1.10;;;1.05;;
9330;SDS011;4704;50.470;12.072;2023-04-25T14:02:18;1.50;;;1.20;;
9330;SDS011;4704;50.470;12.072;2023-04-25T14:04:46;1.10;;;1.00;;
9330;SDS011;4704;50.470;12.072;2023-04-25T14:07:15;1.00;;;0.90;;
9330;SDS011;4704;50.470;12.072;2023-04-25T14:09:43;1.10;;;1.00;;
9330;SDS011;4704;50.470;12.072;2023-04-25T14:12:10;1.17;;;1.08;;
9330;SDS011;4704;50.470;12.072;2023-04-25T14:14:38;1.27;;;1.15;;
9330;SDS011;4704;50.470;12.072;2023-04-25T14:17:05;1.10;;;1.00;;
9330;SDS011;4704;50.470;12.072;2023-04-25T14:19:33;1.30;;;1.20;;
9330;SDS011;4704;50.470;12.072;2023-04-25T14:22:01;1.08;;;0.98;;
9330;SDS011;4704;50.470;12.072;2023-04-25T14:24:30;0.90;;;0.90;;
9330;SDS011;4704;50.470;12.072;2023-04-25T14:26:57;1.15;;;1.05;;
9330;SDS011;4704;50.470;12.072;2023-04-25T14:29:24;1.20;;;1.10;;
9330;SDS011;4704;50.470;12.072;2023-04-25T14:31:52;1.20;;;1.10;;
9330;SDS011;4704;50.470;12.072;2023-04-25T14:34:20;1.10;;;1.00;;
9330;SDS011;4704;50.470;12.072;2023-04-25T14:36:47;1.08;;;1.00;;
9330;SDS011;4704;50.470;12.072;2023-04-25T14:39:15;1.00;;;0.85;;
9330;SDS011;4704;50.470;12.072;2023-04-25T14:41:44;0.90;;;0.90;;
9330;SDS011;4704;50.470;12.072;2023-04-25T14:44:11;1.00;;;0.90;;
9330;SDS011;4704;50.470;12.072;2023-04-25T14:46:40;1.10;;;1.00;;
9330;SDS011;4704;50.470;12.072;2023-04-25T14:49:08;1.17;;;1.08;;
9330;SDS011;4704;50.470;12.072;2023-04-25T14:51:35;1.13;;;1.02;;
9330;SDS011;4704;50.470;12.072;2023-04-25T14:54:03;1.08;;;0.95;;
9330;SDS011;4704;50.470;12.072;2023-04-25T14:56:30;1.10;;;1.00;;
9330;SDS011;4704;50.470;12.072;2023-04-25T14:58:59;1.48;;;0.93;;
9330;SDS011;4704;50.470;12.072;2023-04-25T15:01:27;1.30;;;1.20;;
9330;SDS011;4704;50.470;12.072;2023-04-25T15:03:54;1.08;;;1.02;;
9330;SDS011;4704;50.470;12.072;2023-04-25T15:06:22;1.17;;;1.08;;
9330;SDS011;4704;50.470;12.072;2023-04-25T15:08:51;1.10;;;1.00;;
9330;SDS011;4704;50.470;12.072;2023-04-25T15:11:19;0.90;;;0.90;;
9330;SDS011;4704;50.470;12.072;2023-04-25T15:13:47;1.20;;;1.10;;